createdAt,value
2018-04-27T00:01:35.545Z,6.20
2018-04-27T00:04:02.204Z,6.53
2018-04-27T00:06:29.592Z,6.10
2018-04-27T00:08:56.247Z,6.60
2018-04-27T00:11:22.920Z,6.30
2018-04-27T00:13:49.672Z,6.20
2018-04-27T00:16:16.344Z,6.43
2018-04-27T00:18:42.992Z,6.60
2018-04-27T00:21:09.677Z,5.90
2018-04-27T00:23:36.326Z,6.10
2018-04-27T00:26:03.124Z,5.47
2018-04-27T00:28:29.796Z,6.17
2018-04-27T00:30:56.493Z,6.37
2018-04-27T00:33:23.214Z,6.27
2018-04-27T00:35:49.924Z,6.00
2018-04-27T00:38:17.417Z,6.50
2018-04-27T00:40:44.134Z,6.00
2018-04-27T00:43:10.869Z,5.87
2018-04-27T00:45:38.337Z,6.50
2018-04-27T00:48:05.105Z,6.33
2018-04-27T00:50:31.861Z,7.10
2018-04-27T00:53:13.784Z,6.80
2018-04-27T00:55:41.289Z,7.13
2018-04-27T00:58:08.022Z,6.67
2018-04-27T01:00:35.472Z,6.90
2018-04-27T01:03:02.250Z,6.90
2018-04-27T01:05:28.960Z,6.70
2018-04-27T01:07:56.429Z,7.17
2018-04-27T01:10:23.167Z,7.20
2018-04-27T01:12:49.893Z,6.57
2018-04-27T01:15:16.716Z,7.00
2018-04-27T01:17:43.438Z,6.90
2018-04-27T01:20:10.183Z,6.93
2018-04-27T01:22:37.609Z,6.67
2018-04-27T01:25:04.281Z,6.60
2018-04-27T01:27:32.428Z,6.97
2018-04-27T01:29:59.113Z,6.30
2018-04-27T01:32:25.829Z,7.07
2018-04-27T01:34:53.214Z,7.03
2018-04-27T01:37:19.866Z,6.43
2018-04-27T01:39:46.562Z,7.00
2018-04-27T01:42:13.952Z,6.50
2018-04-27T01:44:40.617Z,7.10
2018-04-27T01:47:07.267Z,6.53
2018-04-27T01:49:33.916Z,6.90
2018-04-27T01:52:00.571Z,6.60
2018-04-27T01:54:28.029Z,6.57
2018-04-27T01:56:54.764Z,7.37
2018-04-27T01:59:21.531Z,6.73
2018-04-27T02:01:48.266Z,7.20
2018-04-27T02:04:15.009Z,6.77
2018-04-27T02:06:41.751Z,7.03
2018-04-27T02:09:08.511Z,7.07
2018-04-27T02:11:35.259Z,7.13
2018-04-27T02:14:01.996Z,6.70
2018-04-27T02:16:28.703Z,7.27
2018-04-27T02:18:55.543Z,7.13
2018-04-27T02:21:22.291Z,7.87
2018-04-27T02:23:49.026Z,7.40
2018-04-27T02:26:15.745Z,7.00
2018-04-27T02:28:43.209Z,7.03
2018-04-27T02:31:09.916Z,8.00
2018-04-27T02:33:36.652Z,7.97
2018-04-27T02:36:03.426Z,7.80
2018-04-27T02:38:30.161Z,7.20
2018-04-27T02:40:56.899Z,6.53
2018-04-27T02:43:23.600Z,7.23
2018-04-27T02:45:50.327Z,7.97
2018-04-27T02:48:17.114Z,7.40
2018-04-27T02:50:44.585Z,8.00
2018-04-27T02:53:11.298Z,7.60
2018-04-27T02:55:38.793Z,8.07
2018-04-27T02:58:05.741Z,7.97
2018-04-27T03:00:32.430Z,7.87
2018-04-27T03:02:59.192Z,7.93
2018-04-27T03:05:25.974Z,7.63
2018-04-27T03:07:52.756Z,8.10
2018-04-27T03:10:19.433Z,7.93
2018-04-27T03:12:46.104Z,7.90
2018-04-27T03:15:12.818Z,7.23
2018-04-27T03:17:39.467Z,7.33
2018-04-27T03:20:06.125Z,7.73
2018-04-27T03:22:32.800Z,7.73
2018-04-27T03:24:59.453Z,7.50
2018-04-27T03:27:26.133Z,8.17
2018-04-27T03:29:52.796Z,8.10
2018-04-27T03:32:19.456Z,7.30
2018-04-27T03:34:46.872Z,7.87
2018-04-27T03:37:13.556Z,7.63
2018-04-27T03:39:40.273Z,8.90
2018-04-27T03:42:07.696Z,9.80
2018-04-27T03:44:34.355Z,8.43
2018-04-27T03:47:01.065Z,13.97
2018-04-27T03:49:27.775Z,9.67
2018-04-27T03:51:54.484Z,10.00
2018-04-27T03:54:21.928Z,8.10
2018-04-27T03:56:48.622Z,7.63
2018-04-27T03:59:27.360Z,7.57
2018-04-27T04:02:12.419Z,7.77
2018-04-27T04:04:57.188Z,7.93
2018-04-27T04:07:25.180Z,9.83
2018-04-27T04:09:51.948Z,9.50
2018-04-27T04:12:19.413Z,7.40
2018-04-27T04:14:46.171Z,8.20
2018-04-27T04:17:12.953Z,7.83
2018-04-27T04:19:39.697Z,8.57
2018-04-27T04:22:06.423Z,8.10
2018-04-27T04:24:33.132Z,7.70
2018-04-27T04:26:59.864Z,8.90
2018-04-27T04:29:26.594Z,10.20
2018-04-27T04:31:53.372Z,8.93
2018-04-27T04:34:20.126Z,8.50
2018-04-27T04:36:46.786Z,7.87
2018-04-27T04:39:14.193Z,7.63
2018-04-27T04:41:40.847Z,7.70
2018-04-27T04:44:07.617Z,6.90
2018-04-27T04:46:34.285Z,6.37
2018-04-27T04:49:01.000Z,6.53
2018-04-27T04:51:28.400Z,7.30
2018-04-27T04:53:55.134Z,6.67
2018-04-27T04:56:21.789Z,6.57
2018-04-27T04:58:48.473Z,6.53
2018-04-27T05:01:15.884Z,6.10
2018-04-27T05:03:42.592Z,7.07
2018-04-27T05:06:09.295Z,6.57
2018-04-27T05:08:36.777Z,6.50
2018-04-27T05:11:04.247Z,6.10
2018-04-27T05:13:30.987Z,6.47
2018-04-27T05:15:57.723Z,6.60
2018-04-27T05:21:37.982Z,7.00
2018-04-27T05:24:05.435Z,6.80
2018-04-27T05:26:32.945Z,6.83
2018-04-27T05:28:59.714Z,6.40
2018-04-27T05:31:26.432Z,6.90
2018-04-27T05:33:53.213Z,6.57
2018-04-27T05:36:19.950Z,5.80
2018-04-27T05:38:47.462Z,5.83
2018-04-27T05:41:14.197Z,5.90
2018-04-27T05:43:40.971Z,5.73
2018-04-27T05:46:10.776Z,5.90
2018-04-27T05:48:37.483Z,5.87
2018-04-27T05:51:04.204Z,5.73
2018-04-27T05:53:30.904Z,5.37
2018-04-27T05:55:57.717Z,5.60
2018-04-27T05:58:24.476Z,5.60
2018-04-27T06:00:51.152Z,6.37
2018-04-27T06:03:17.959Z,6.70
2018-04-27T06:05:44.664Z,6.60
2018-04-27T06:08:11.442Z,6.63
2018-04-27T06:10:38.243Z,6.00
2018-04-27T06:13:04.980Z,6.37
2018-04-27T06:15:31.672Z,6.03
2018-04-27T06:17:59.097Z,6.43
2018-04-27T06:20:25.785Z,5.77
2018-04-27T06:22:52.457Z,6.40
2018-04-27T06:25:19.179Z,6.17
2018-04-27T06:27:45.859Z,6.50
2018-04-27T06:30:12.560Z,6.97
2018-04-27T06:32:39.217Z,6.70
2018-04-27T06:35:05.950Z,6.40
2018-04-27T06:37:32.654Z,6.43
2018-04-27T06:39:59.348Z,6.23
2018-04-27T06:42:26.084Z,6.20
2018-04-27T06:44:52.864Z,6.60
2018-04-27T06:47:20.383Z,6.90
2018-04-27T06:49:47.124Z,6.70
2018-04-27T06:52:13.844Z,7.37
2018-04-27T06:54:40.562Z,6.50
2018-04-27T06:57:14.747Z,6.80
2018-04-27T06:59:42.589Z,6.40
2018-04-27T07:02:27.550Z,6.03
2018-04-27T07:05:07.799Z,6.47
2018-04-27T07:07:35.317Z,7.10
2018-04-27T07:10:02.062Z,6.50
2018-04-27T07:12:29.662Z,6.03
2018-04-27T07:14:56.412Z,5.83
2018-04-27T07:17:23.072Z,5.83
2018-04-27T07:19:51.340Z,5.20
2018-04-27T07:22:18.899Z,6.80
2018-04-27T07:24:46.352Z,5.47
2018-04-27T07:27:13.084Z,4.97
2018-04-27T07:29:39.824Z,5.40
2018-04-27T07:32:06.510Z,5.20
2018-04-27T07:34:33.192Z,5.70
2018-04-27T07:36:59.912Z,6.10
2018-04-27T07:39:26.588Z,5.83
2018-04-27T07:41:54.040Z,5.50
2018-04-27T07:44:20.794Z,5.30
2018-04-27T07:46:48.277Z,6.27
2018-04-27T07:49:15.021Z,5.83
2018-04-27T07:51:41.802Z,5.40
2018-04-27T07:54:08.466Z,5.60
2018-04-27T07:56:35.908Z,6.60
2018-04-27T07:59:02.614Z,6.57
2018-04-27T08:01:29.342Z,6.30
2018-04-27T08:03:56.086Z,6.70
2018-04-27T08:06:22.772Z,6.63
2018-04-27T08:08:50.518Z,6.77
2018-04-27T08:11:17.282Z,6.70
2018-04-27T08:13:44.733Z,6.93
2018-04-27T08:16:11.548Z,6.40
2018-04-27T08:18:38.294Z,6.13
2018-04-27T08:21:05.039Z,6.67
2018-04-27T08:23:31.783Z,6.13
2018-04-27T08:25:58.541Z,6.37
2018-04-27T08:28:25.263Z,6.37
2018-04-27T08:30:52.029Z,5.97
2018-04-27T08:33:18.764Z,6.27
2018-04-27T08:35:46.246Z,6.10
2018-04-27T08:38:12.924Z,6.20
2018-04-27T08:40:39.604Z,6.13
2018-04-27T08:43:06.320Z,5.87
2018-04-27T08:45:33.784Z,6.20
2018-04-27T08:48:01.187Z,5.78
2018-04-27T08:50:28.000Z,6.00
2018-04-27T08:52:54.669Z,5.93
2018-04-27T08:55:21.379Z,6.07
2018-04-27T08:57:48.147Z,5.78
2018-04-27T09:00:14.920Z,5.20
2018-04-27T09:02:41.655Z,5.53
2018-04-27T09:05:08.309Z,5.50
2018-04-27T09:07:34.981Z,5.53
2018-04-27T09:10:01.710Z,5.10
2018-04-27T09:12:28.418Z,6.62
2018-04-27T09:14:55.114Z,5.37
2018-04-27T09:17:21.784Z,5.43
2018-04-27T09:19:48.460Z,5.45
2018-04-27T09:22:15.144Z,5.47
2018-04-27T09:24:41.831Z,5.37
2018-04-27T09:27:08.547Z,4.90
2018-04-27T09:29:35.233Z,5.07
2018-04-27T09:32:01.940Z,5.72
2018-04-27T09:34:29.390Z,5.55
2018-04-27T09:36:56.809Z,5.55
2018-04-27T09:39:23.497Z,5.80
2018-04-27T09:41:50.979Z,5.50
2018-04-27T09:44:17.705Z,5.90
2018-04-27T09:46:44.435Z,6.95
2018-04-27T09:49:11.889Z,5.20
2018-04-27T09:51:39.349Z,5.45
2018-04-27T09:54:06.017Z,4.95
2018-04-27T09:56:32.741Z,5.35
2018-04-27T09:58:59.426Z,5.53
2018-04-27T10:01:26.193Z,4.97
2018-04-27T10:03:53.588Z,5.78
2018-04-27T10:06:20.332Z,5.50
2018-04-27T10:08:47.025Z,5.68
2018-04-27T10:11:14.460Z,5.05
2018-04-27T10:13:41.141Z,5.43
2018-04-27T10:16:07.873Z,5.55
2018-04-27T10:18:35.295Z,5.40
2018-04-27T10:21:02.005Z,5.30
2018-04-27T10:23:28.695Z,5.50
2018-04-27T10:25:55.424Z,5.55
2018-04-27T10:28:22.121Z,4.95
2018-04-27T10:30:48.804Z,5.53
2018-04-27T10:33:15.499Z,5.50
2018-04-27T10:35:42.215Z,5.70
2018-04-27T10:38:08.893Z,5.68
2018-04-27T10:40:35.620Z,5.30
2018-04-27T10:43:02.372Z,5.03
2018-04-27T10:45:29.740Z,5.22
2018-04-27T10:47:56.454Z,5.15
2018-04-27T10:50:23.226Z,4.60
2018-04-27T10:52:50.689Z,4.78
2018-04-27T10:55:18.204Z,4.90
2018-04-27T10:57:44.956Z,4.68
2018-04-27T11:00:11.705Z,5.10
2018-04-27T11:02:41.332Z,4.70
2018-04-27T11:05:08.871Z,4.47
2018-04-27T11:07:35.623Z,4.93
2018-04-27T11:10:02.335Z,4.30
2018-04-27T11:12:29.050Z,4.72
2018-04-27T11:14:55.761Z,6.53
2018-04-27T11:17:23.223Z,4.72
2018-04-27T11:19:50.692Z,4.30
2018-04-27T11:22:17.437Z,4.28
2018-04-27T11:24:44.212Z,4.57
2018-04-27T11:27:10.919Z,4.55
2018-04-27T11:29:37.570Z,4.40
2018-04-27T11:32:04.240Z,4.55
2018-04-27T11:34:30.919Z,4.87
2018-04-27T11:36:57.632Z,4.20
2018-04-27T11:39:24.297Z,3.70
2018-04-27T11:41:50.974Z,4.25
2018-04-27T11:44:17.679Z,3.67
2018-04-27T11:46:44.404Z,3.53
2018-04-27T11:49:11.859Z,2.62
2018-04-27T11:51:39.345Z,2.33
2018-04-27T11:54:06.073Z,2.85
2018-04-27T11:56:32.810Z,3.28
2018-04-27T11:58:59.531Z,2.60
2018-04-27T12:01:27.012Z,2.30
2018-04-27T12:03:53.742Z,2.60
2018-04-27T12:06:20.534Z,2.40
2018-04-27T12:08:47.276Z,2.42
2018-04-27T12:11:13.997Z,2.45
2018-04-27T12:13:40.754Z,2.60
2018-04-27T12:16:07.484Z,2.80
2018-04-27T12:18:34.297Z,3.12
2018-04-27T12:21:00.987Z,3.10
2018-04-27T12:23:27.663Z,3.20
2018-04-27T12:25:54.734Z,3.05
2018-04-27T12:28:22.196Z,3.37
2018-04-27T12:30:48.933Z,3.70
2018-04-27T12:33:15.542Z,3.72
2018-04-27T12:35:42.191Z,3.60
2018-04-27T12:38:08.914Z,3.53
2018-04-27T12:40:36.454Z,3.30
2018-04-27T12:43:03.963Z,3.60
2018-04-27T12:45:47.379Z,3.20
2018-04-27T12:48:14.302Z,3.03
2018-04-27T12:50:41.057Z,4.05
2018-04-27T12:53:07.814Z,4.37
2018-04-27T12:55:34.549Z,3.10
2018-04-27T12:58:01.399Z,3.67
2018-04-27T13:00:28.103Z,3.22
2018-04-27T13:02:54.764Z,3.70
2018-04-27T13:05:21.430Z,3.50
2018-04-27T13:07:48.138Z,3.72
2018-04-27T13:10:14.857Z,3.47
2018-04-27T13:12:42.356Z,4.20
2018-04-27T13:15:09.085Z,4.28
2018-04-27T13:17:35.837Z,3.72
2018-04-27T13:20:02.592Z,3.75
2018-04-27T13:22:29.265Z,4.22
2018-04-27T13:24:56.769Z,4.10
2018-04-27T13:27:23.504Z,4.40
2018-04-27T13:29:50.197Z,5.32
2018-04-27T13:32:20.575Z,4.22
2018-04-27T13:34:47.256Z,4.07
2018-04-27T13:37:13.925Z,4.40
2018-04-27T13:39:40.644Z,4.53
2018-04-27T13:42:08.117Z,4.15
2018-04-27T13:44:34.826Z,7.78
2018-04-27T13:47:02.261Z,4.18
2018-04-27T13:49:28.941Z,6.78
2018-04-27T13:51:56.504Z,7.35
2018-04-27T13:54:23.177Z,4.82
2018-04-27T13:56:49.936Z,5.15
2018-04-27T13:59:16.666Z,3.95
2018-04-27T14:01:43.440Z,4.30
2018-04-27T14:04:10.930Z,4.18
2018-04-27T14:06:37.664Z,3.78
2018-04-27T14:09:04.404Z,4.22
2018-04-27T14:11:31.121Z,4.25
2018-04-27T14:13:58.639Z,4.15
2018-04-27T14:16:25.395Z,4.70
2018-04-27T14:18:52.156Z,4.25
2018-04-27T14:21:19.652Z,4.57
2018-04-27T14:23:46.317Z,4.43
2018-04-27T14:26:13.080Z,4.00
2018-04-27T14:28:39.827Z,4.57
2018-04-27T14:31:07.764Z,4.43
2018-04-27T14:33:34.424Z,4.40
2018-04-27T14:36:01.084Z,4.35
2018-04-27T14:38:28.551Z,4.82
2018-04-27T14:40:55.278Z,4.43
2018-04-27T14:43:22.709Z,4.47
2018-04-27T14:45:49.394Z,4.60
2018-04-27T14:48:16.116Z,4.75
2018-04-27T14:50:43.576Z,4.78
2018-04-27T14:53:10.297Z,4.70
2018-04-27T14:55:37.789Z,4.35
2018-04-27T14:58:04.532Z,4.75
2018-04-27T15:00:31.276Z,4.70
2018-04-27T15:02:58.076Z,4.50
2018-04-27T15:05:25.563Z,4.95
2018-04-27T15:07:52.441Z,4.45
2018-04-27T15:10:19.186Z,4.78
2018-04-27T15:12:45.981Z,5.32
2018-04-27T15:15:12.693Z,5.15
2018-04-27T15:17:39.392Z,4.87
2018-04-27T15:20:06.075Z,5.25
2018-04-27T15:22:33.486Z,5.90
2018-04-27T15:25:00.193Z,4.68
2018-04-27T15:27:27.453Z,4.68
2018-04-27T15:29:55.854Z,4.78
2018-04-27T15:32:22.553Z,4.95
2018-04-27T15:34:50.009Z,5.35
2018-04-27T15:37:17.476Z,4.90
2018-04-27T15:39:44.204Z,4.50
2018-04-27T15:42:11.741Z,5.10
2018-04-27T15:44:38.406Z,5.07
2018-04-27T15:47:05.164Z,5.03
2018-04-27T15:49:31.967Z,5.53
2018-04-27T15:51:59.515Z,6.73
2018-04-27T15:54:26.248Z,4.90
2018-04-27T15:56:52.901Z,5.40
2018-04-27T15:59:19.556Z,5.30
2018-04-27T16:01:47.021Z,5.30
2018-04-27T16:04:13.741Z,5.30
2018-04-27T16:06:41.214Z,4.73
2018-04-27T16:09:08.641Z,4.50
2018-04-27T16:11:35.393Z,4.90
2018-04-27T16:14:02.856Z,4.63
2018-04-27T16:16:30.336Z,4.80
2018-04-27T16:19:06.521Z,5.30
2018-04-27T16:21:33.427Z,4.60
2018-04-27T16:24:00.876Z,4.70
2018-04-27T16:26:28.361Z,4.80
2018-04-27T16:28:56.017Z,4.33
2018-04-27T16:31:22.758Z,4.30
2018-04-27T16:33:50.363Z,4.90
2018-04-27T16:36:17.863Z,5.00
2018-04-27T16:38:44.581Z,5.07
2018-04-27T16:41:12.044Z,4.57
2018-04-27T16:43:39.486Z,5.53
2018-04-27T16:46:06.192Z,5.20
2018-04-27T16:48:32.888Z,4.67
2018-04-27T16:51:00.322Z,5.40
2018-04-27T16:53:27.772Z,4.90
2018-04-27T16:55:54.497Z,5.90
2018-04-27T16:58:21.229Z,4.67
2018-04-27T17:00:48.021Z,5.43
2018-04-27T17:03:14.812Z,5.07
2018-04-27T17:05:41.606Z,5.03
2018-04-27T17:08:08.326Z,4.80
2018-04-27T17:10:35.789Z,4.67
2018-04-27T17:13:02.521Z,4.73
2018-04-27T17:15:30.002Z,4.70
2018-04-27T17:17:56.755Z,4.47
2018-04-27T17:20:23.479Z,4.43
2018-04-27T17:22:50.189Z,4.33
2018-04-27T17:25:16.943Z,4.13
2018-04-27T17:27:44.408Z,4.60
2018-04-27T17:30:11.960Z,4.10
2018-04-27T17:32:40.218Z,4.10
2018-04-27T17:35:06.963Z,4.90
2018-04-27T17:37:35.074Z,4.40
2018-04-27T17:40:01.817Z,4.03
2018-04-27T17:42:28.524Z,4.20
2018-04-27T17:44:56.031Z,4.00
2018-04-27T17:47:22.762Z,4.17
2018-04-27T17:49:49.491Z,4.43
2018-04-27T17:52:16.216Z,4.30
2018-04-27T17:54:42.904Z,4.47
2018-04-27T17:57:09.611Z,4.30
2018-04-27T17:59:36.296Z,5.73
2018-04-27T18:02:03.040Z,4.43
2018-04-27T18:04:29.736Z,4.73
2018-04-27T18:06:56.456Z,5.30
2018-04-27T18:09:23.199Z,5.40
2018-04-27T18:11:49.935Z,5.57
2018-04-27T18:14:16.758Z,5.67
2018-04-27T18:16:43.513Z,5.80
2018-04-27T18:19:11.008Z,5.60
2018-04-27T18:21:37.773Z,4.70
2018-04-27T18:24:04.554Z,5.43
2018-04-27T18:26:31.292Z,4.53
2018-04-27T18:28:58.064Z,5.10
2018-04-27T18:31:25.617Z,5.33
2018-04-27T18:33:52.397Z,5.10
2018-04-27T18:36:19.236Z,4.63
2018-04-27T18:38:45.971Z,5.53
2018-04-27T18:41:12.751Z,4.90
2018-04-27T18:43:39.513Z,4.67
2018-04-27T18:46:06.254Z,5.27
2018-04-27T18:48:34.705Z,4.50
2018-04-27T18:51:01.369Z,5.07
2018-04-27T18:53:29.139Z,5.30
2018-04-27T18:55:55.894Z,4.87
2018-04-27T18:58:22.660Z,5.40
2018-04-27T19:00:49.470Z,5.20
2018-04-27T19:03:18.084Z,5.10
2018-04-27T19:05:44.874Z,5.27
2018-04-27T19:08:11.722Z,5.17
2018-04-27T19:10:39.491Z,5.53
2018-04-27T19:13:11.939Z,5.50
2018-04-27T19:15:38.736Z,5.50
2018-04-27T19:18:06.477Z,5.30
2018-04-27T19:20:38.277Z,5.60
2018-04-27T19:23:06.724Z,5.03
2018-04-27T19:25:33.489Z,5.57
2018-04-27T19:28:00.296Z,4.50
2018-04-27T19:33:03.004Z,4.90
2018-04-27T19:35:29.852Z,4.93
2018-04-27T19:37:56.644Z,5.30
2018-04-27T19:40:23.411Z,5.73
2018-04-27T19:42:50.485Z,5.30
2018-04-27T19:45:17.212Z,5.60
2018-04-27T19:47:44.016Z,5.33
2018-04-27T19:50:10.769Z,5.40
2018-04-27T19:52:37.577Z,4.70
2018-04-27T19:55:05.103Z,5.87
2018-04-27T19:57:31.887Z,6.57
2018-04-27T19:59:58.655Z,5.53
2018-04-27T20:02:25.424Z,5.90
2018-04-27T20:04:52.274Z,5.33
2018-04-27T20:07:19.039Z,5.47
2018-04-27T20:09:50.482Z,5.57
2018-04-27T20:12:18.017Z,6.27
2018-04-27T20:14:44.770Z,6.13
2018-04-27T20:17:11.536Z,5.83
2018-04-27T20:19:41.231Z,6.13
2018-04-27T20:22:20.572Z,6.10
2018-04-27T20:24:48.131Z,6.00
2018-04-27T20:27:18.524Z,6.53
2018-04-27T20:29:46.282Z,7.10
2018-04-27T20:32:13.022Z,6.97
2018-04-27T20:34:40.272Z,5.57
2018-04-27T20:37:07.031Z,5.23
2018-04-27T20:39:33.739Z,5.80
2018-04-27T20:42:00.534Z,5.57
2018-04-27T20:44:28.099Z,5.50
2018-04-27T20:46:54.827Z,5.80
2018-04-27T20:49:22.327Z,5.10
2018-04-27T20:51:49.999Z,6.43
2018-04-27T20:54:16.769Z,5.77
2018-04-27T20:56:43.529Z,5.97
2018-04-27T20:59:11.909Z,5.63
2018-04-27T21:01:39.432Z,6.17
2018-04-27T21:04:06.231Z,5.93
2018-04-27T21:06:33.070Z,6.27
2018-04-27T21:08:59.842Z,6.00
2018-04-27T21:11:36.334Z,6.27
2018-04-27T21:14:03.900Z,6.30
2018-04-27T21:16:30.629Z,6.10
2018-04-27T21:18:57.374Z,6.30
2018-04-27T21:21:24.154Z,6.23
2018-04-27T21:23:50.884Z,5.40
2018-04-27T21:29:22.374Z,5.30
2018-04-27T21:31:49.308Z,5.37
2018-04-27T21:34:16.114Z,5.13
2018-04-27T21:36:53.900Z,5.40
2018-04-27T21:39:23.841Z,5.30
2018-04-27T21:44:51.349Z,5.40
2018-04-27T21:47:40.748Z,5.73
2018-04-27T21:50:08.440Z,5.10
2018-04-27T21:52:39.908Z,5.90
2018-04-27T21:55:06.670Z,6.10
2018-04-27T22:00:34.436Z,6.23
2018-04-27T22:03:16.364Z,6.57
2018-04-27T22:06:06.454Z,6.23
2018-04-27T22:08:53.919Z,6.27
2018-04-27T22:11:24.406Z,6.60
2018-04-27T22:13:51.972Z,6.77
2018-04-27T22:16:36.361Z,8.07
2018-04-27T22:19:04.204Z,7.00
2018-04-27T22:21:33.573Z,6.80
2018-04-27T22:24:07.466Z,6.80
2018-04-27T22:26:36.051Z,6.47
2018-04-27T22:29:05.616Z,6.50
2018-04-27T22:31:34.136Z,6.63
2018-04-27T22:34:09.886Z,6.60
2018-04-27T22:36:41.452Z,6.67
2018-04-27T22:39:16.797Z,6.93
2018-04-27T22:42:12.364Z,6.90
2018-04-27T22:44:47.444Z,6.27
2018-04-27T22:47:19.877Z,6.70
2018-04-27T22:49:47.394Z,6.53
2018-04-27T22:52:16.176Z,7.93
2018-04-27T22:54:43.844Z,7.33
2018-04-27T22:57:28.160Z,7.30
2018-04-27T22:59:56.054Z,6.97
2018-04-27T23:02:23.879Z,7.00
2018-04-27T23:05:13.773Z,7.27
2018-04-27T23:07:45.163Z,6.90
2018-04-27T23:10:11.928Z,7.30
2018-04-27T23:15:41.146Z,7.17
2018-04-27T23:18:10.801Z,7.60
2018-04-27T23:20:37.584Z,7.20
2018-04-27T23:23:09.507Z,7.80
2018-04-27T23:25:37.316Z,7.23
2018-04-27T23:28:14.813Z,7.17
2018-04-27T23:30:42.329Z,7.73
2018-04-27T23:33:09.126Z,7.63
2018-04-27T23:38:32.636Z,7.37
2018-04-27T23:40:59.416Z,7.60
2018-04-27T23:43:28.496Z,8.07
2018-04-27T23:45:55.268Z,7.57
2018-04-27T23:48:23.673Z,8.23
2018-04-27T23:50:52.195Z,7.27
2018-04-27T23:53:21.796Z,7.83
2018-04-27T23:55:48.593Z,7.10
2018-04-27T23:58:22.992Z,8.17
